createdAt,value
2022-10-29T00:02:10.042Z,9.60
2022-10-29T00:04:55.389Z,9.34
2022-10-29T00:07:40.738Z,9.49
2022-10-29T00:10:26.754Z,9.34
2022-10-29T00:13:12.299Z,9.50
2022-10-29T00:15:57.514Z,9.45
2022-10-29T00:18:43.242Z,9.24
2022-10-29T00:21:29.039Z,7.91
2022-10-29T00:24:14.443Z,9.38
2022-10-29T00:26:59.806Z,9.42
2022-10-29T00:29:45.155Z,8.25
2022-10-29T00:32:30.448Z,9.39
2022-10-29T00:35:16.024Z,9.47
2022-10-29T00:38:01.497Z,7.54
2022-10-29T00:40:46.822Z,9.39
2022-10-29T00:43:37.392Z,8.35
2022-10-29T00:47:04.492Z,9.41
2022-10-29T00:50:10.629Z,9.34
2022-10-29T00:52:57.035Z,9.31
2022-10-29T00:55:42.667Z,9.29
2022-10-29T00:58:29.272Z,9.20
2022-10-29T01:01:15.531Z,9.19
2022-10-29T01:04:01.826Z,8.61
2022-10-29T01:06:48.073Z,9.11
2022-10-29T01:09:33.527Z,9.19
2022-10-29T01:12:26.979Z,7.99
2022-10-29T01:15:44.800Z,9.17
2022-10-29T01:18:45.469Z,9.12
2022-10-29T01:21:42.838Z,7.86
2022-10-29T01:24:49.538Z,9.08
2022-10-29T01:27:51.623Z,9.05
2022-10-29T01:31:16.097Z,8.49
2022-10-29T01:34:18.404Z,8.64
2022-10-29T01:37:11.319Z,8.89
2022-10-29T01:40:18.075Z,8.90
2022-10-29T01:43:14.257Z,8.77
2022-10-29T01:46:19.391Z,8.97
2022-10-29T01:49:11.789Z,7.77
2022-10-29T01:52:01.753Z,9.02
2022-10-29T01:54:48.332Z,7.67
2022-10-29T01:57:36.885Z,7.76
2022-10-29T02:00:22.699Z,8.77
2022-10-29T02:03:42.526Z,8.36
2022-10-29T02:06:36.481Z,8.94
2022-10-29T02:09:50.625Z,8.48
2022-10-29T02:12:45.588Z,8.87
2022-10-29T02:15:38.799Z,7.65
2022-10-29T02:18:24.432Z,8.66
2022-10-29T02:21:09.965Z,8.33
2022-10-29T02:23:55.325Z,8.63
2022-10-29T02:26:40.781Z,7.47
2022-10-29T02:29:26.190Z,7.57
2022-10-29T02:32:11.600Z,8.42
2022-10-29T02:34:56.825Z,8.09
2022-10-29T02:37:42.308Z,8.52
2022-10-29T02:40:27.524Z,8.49
2022-10-29T02:43:13.065Z,8.44
2022-10-29T02:46:18.634Z,7.13
2022-10-29T02:49:04.434Z,7.11
2022-10-29T02:51:50.380Z,8.37
2022-10-29T02:54:36.131Z,7.12
2022-10-29T02:57:21.656Z,7.83
2022-10-29T03:00:07.676Z,8.34
2022-10-29T03:02:53.031Z,8.13
2022-10-29T03:05:38.167Z,8.30
2022-10-29T03:08:23.737Z,8.52
2022-10-29T03:11:09.678Z,7.28
2022-10-29T03:13:55.058Z,7.57
2022-10-29T03:16:40.363Z,8.46
2022-10-29T03:19:25.740Z,8.42
2022-10-29T03:22:11.303Z,8.54
2022-10-29T03:24:56.636Z,8.06
2022-10-29T03:27:43.540Z,8.31
2022-10-29T03:30:28.853Z,8.51
2022-10-29T03:33:14.674Z,7.46
2022-10-29T03:36:02.663Z,7.17
2022-10-29T03:38:47.804Z,8.38
2022-10-29T03:41:33.075Z,7.17
2022-10-29T03:44:18.585Z,8.42
2022-10-29T03:47:03.979Z,8.40
2022-10-29T03:49:49.470Z,8.03
2022-10-29T03:52:34.965Z,8.39
2022-10-29T03:55:20.315Z,8.00
2022-10-29T03:58:05.636Z,7.82
2022-10-29T04:01:05.882Z,7.37
2022-10-29T04:03:51.346Z,7.44
2022-10-29T04:06:36.646Z,8.52
2022-10-29T04:09:22.066Z,8.36
2022-10-29T04:12:08.404Z,7.24
2022-10-29T04:14:54.064Z,8.40
2022-10-29T04:17:39.537Z,8.16
2022-10-29T04:20:47.708Z,8.34
2022-10-29T04:29:41.788Z,7.04
2022-10-29T04:32:27.667Z,7.43
2022-10-29T04:35:13.467Z,8.02
2022-10-29T04:37:58.931Z,8.34
2022-10-29T04:40:44.109Z,7.19
2022-10-29T04:43:29.836Z,8.39
2022-10-29T04:46:15.112Z,7.93
2022-10-29T04:49:00.790Z,7.41
2022-10-29T04:51:46.433Z,7.43
2022-10-29T04:54:31.785Z,7.64
2022-10-29T04:57:17.221Z,7.75
2022-10-29T05:00:02.796Z,8.33
2022-10-29T05:02:49.872Z,8.31
2022-10-29T05:05:37.961Z,8.11
2022-10-29T05:08:23.559Z,7.45
2022-10-29T05:11:09.439Z,7.13
2022-10-29T05:13:54.724Z,8.22
2022-10-29T05:16:40.138Z,8.23
2022-10-29T05:19:25.748Z,8.10
2022-10-29T05:22:11.311Z,8.32
2022-10-29T05:24:57.022Z,7.47
2022-10-29T05:27:42.547Z,7.16
2022-10-29T05:30:28.262Z,8.10
2022-10-29T05:33:22.862Z,8.51
2022-10-29T05:36:08.521Z,8.59
2022-10-29T05:38:54.634Z,8.23
2022-10-29T05:41:40.184Z,8.11
2022-10-29T05:44:25.676Z,8.73
2022-10-29T05:47:11.271Z,8.01
2022-10-29T05:49:56.648Z,8.89
2022-10-29T05:52:42.176Z,8.72
2022-10-29T05:55:29.787Z,9.06
2022-10-29T05:58:15.104Z,8.96
2022-10-29T06:01:00.448Z,7.92
2022-10-29T06:03:46.472Z,8.92
2022-10-29T06:06:31.823Z,8.25
2022-10-29T06:09:17.224Z,8.96
2022-10-29T06:12:03.300Z,9.16
2022-10-29T06:14:49.266Z,9.52
2022-10-29T06:17:34.577Z,9.59
2022-10-29T06:20:21.822Z,9.30
2022-10-29T06:23:07.425Z,9.82
2022-10-29T06:25:52.990Z,9.07
2022-10-29T06:28:38.420Z,9.82
2022-10-29T06:31:24.008Z,10.15
2022-10-29T06:34:09.501Z,10.30
2022-10-29T06:36:55.879Z,9.23
2022-10-29T06:39:41.316Z,9.26
2022-10-29T06:42:26.816Z,10.68
2022-10-29T06:45:12.301Z,10.33
2022-10-29T06:47:58.566Z,10.93
2022-10-29T06:50:44.518Z,10.99
2022-10-29T06:53:29.863Z,11.16
2022-10-29T06:56:15.305Z,11.17
2022-10-29T06:59:00.922Z,10.07
2022-10-29T07:01:46.732Z,10.77
2022-10-29T07:04:32.264Z,11.16
2022-10-29T07:07:17.932Z,10.11
2022-10-29T07:10:03.672Z,11.24
2022-10-29T07:12:49.020Z,10.02
2022-10-29T07:15:34.787Z,11.16
2022-10-29T07:18:20.123Z,11.19
2022-10-29T07:21:05.834Z,10.25
2022-10-29T07:23:51.604Z,11.08
2022-10-29T07:26:37.247Z,11.02
2022-10-29T07:29:22.713Z,10.84
2022-10-29T07:32:08.181Z,11.17
2022-10-29T07:34:53.423Z,10.71
2022-10-29T07:37:39.039Z,10.16
2022-10-29T07:40:24.317Z,11.21
2022-10-29T07:43:09.686Z,11.27
2022-10-29T07:45:54.982Z,11.70
2022-10-29T07:48:40.576Z,11.77
2022-10-29T07:51:26.235Z,11.83
2022-10-29T07:54:14.738Z,11.45
2022-10-29T07:57:00.544Z,11.89
2022-10-29T07:59:47.021Z,11.29
2022-10-29T08:02:33.327Z,12.02
2022-10-29T08:05:18.768Z,11.21
2022-10-29T08:08:05.606Z,12.18
2022-10-29T08:10:51.410Z,12.16
2022-10-29T08:13:36.425Z,12.39
2022-10-29T08:16:22.599Z,12.30
2022-10-29T08:19:09.756Z,11.71
2022-10-29T08:21:56.218Z,12.30
2022-10-29T08:24:41.958Z,11.67
2022-10-29T08:27:28.000Z,12.09
2022-10-29T08:30:16.033Z,13.02
2022-10-29T08:33:02.016Z,12.05
2022-10-29T08:35:48.087Z,12.90
2022-10-29T08:38:34.520Z,13.42
2022-10-29T08:41:57.464Z,13.55
2022-10-29T08:45:03.190Z,13.61
2022-10-29T08:48:12.387Z,13.41
2022-10-29T08:51:28.748Z,13.73
2022-10-29T08:54:32.231Z,13.77
2022-10-29T08:57:26.449Z,13.95
2022-10-29T09:00:18.102Z,14.09
2022-10-29T09:03:11.024Z,13.94
2022-10-29T09:06:05.994Z,14.27
2022-10-29T09:08:52.338Z,14.32
2022-10-29T09:11:46.535Z,14.38
2022-10-29T09:14:45.808Z,13.30
2022-10-29T09:18:10.420Z,14.41
2022-10-29T09:21:17.807Z,14.48
2022-10-29T09:24:22.812Z,13.46
2022-10-29T09:27:22.896Z,14.43
2022-10-29T09:30:17.362Z,14.32
2022-10-29T09:33:14.045Z,13.52
2022-10-29T09:36:01.177Z,14.24
2022-10-29T09:38:59.082Z,14.72
2022-10-29T09:41:45.023Z,14.49
2022-10-29T09:44:43.517Z,14.74
2022-10-29T09:47:46.524Z,14.80
2022-10-29T09:50:41.828Z,14.29
2022-10-29T09:53:27.037Z,14.38
2022-10-29T09:56:12.827Z,15.13
2022-10-29T09:59:25.344Z,14.14
2022-10-29T10:02:31.077Z,14.27
2022-10-29T10:05:25.081Z,14.53
2022-10-29T10:08:14.799Z,14.59
2022-10-29T10:11:06.968Z,15.13
2022-10-29T10:13:59.732Z,15.63
2022-10-29T10:16:45.400Z,15.23
2022-10-29T10:19:32.486Z,14.68
2022-10-29T10:22:24.349Z,15.81
2022-10-29T10:25:34.164Z,15.87
2022-10-29T10:28:19.867Z,15.93
2022-10-29T10:31:13.083Z,15.96
2022-10-29T10:33:58.711Z,14.98
2022-10-29T10:36:57.019Z,15.91
2022-10-29T10:39:54.786Z,15.01
2022-10-29T10:42:47.058Z,15.91
2022-10-29T10:45:40.194Z,14.85
2022-10-29T10:48:32.643Z,16.15
2022-10-29T10:51:25.203Z,16.22
2022-10-29T10:54:44.678Z,15.25
2022-10-29T10:57:34.597Z,16.10
2022-10-29T11:00:21.931Z,16.27
2022-10-29T11:03:18.161Z,16.20
2022-10-29T11:06:10.191Z,16.25
2022-10-29T11:09:14.511Z,16.23
2022-10-29T11:12:10.677Z,15.97
2022-10-29T11:15:05.385Z,16.18
2022-10-29T11:18:03.457Z,16.18
2022-10-29T11:21:14.177Z,16.19
2022-10-29T11:24:09.106Z,16.20
2022-10-29T11:27:01.640Z,15.53
2022-10-29T11:30:04.020Z,15.88
2022-10-29T11:33:24.389Z,16.31
2022-10-29T11:36:23.580Z,15.46
2022-10-29T11:39:18.116Z,16.42
2022-10-29T11:42:04.104Z,15.80
2022-10-29T11:44:50.140Z,16.09
2022-10-29T11:47:59.691Z,16.19
2022-10-29T11:51:05.779Z,16.48
2022-10-29T11:53:54.718Z,16.56
2022-10-29T11:56:53.906Z,16.60
2022-10-29T11:59:45.754Z,16.62
2022-10-29T12:02:53.782Z,16.65
2022-10-29T12:05:39.768Z,16.66
2022-10-29T12:08:46.673Z,16.69
2022-10-29T12:11:42.998Z,16.76
2022-10-29T12:14:34.385Z,16.82
2022-10-29T12:17:39.890Z,16.71
2022-10-29T12:20:38.316Z,17.03
2022-10-29T12:23:50.769Z,16.26
2022-10-29T12:26:57.406Z,17.18
2022-10-29T12:29:53.329Z,17.18
2022-10-29T12:32:53.514Z,16.76
2022-10-29T12:36:05.161Z,16.82
2022-10-29T12:38:56.371Z,17.12
2022-10-29T12:41:48.129Z,17.39
2022-10-29T12:44:58.832Z,17.45
2022-10-29T12:48:04.785Z,17.55
2022-10-29T12:51:02.015Z,17.64
2022-10-29T12:54:21.432Z,17.73
2022-10-29T12:57:12.818Z,17.73
2022-10-29T13:00:23.985Z,17.85
2022-10-29T13:03:10.515Z,17.89
2022-10-29T13:05:56.429Z,17.73
2022-10-29T13:08:54.536Z,17.76
2022-10-29T13:11:47.758Z,17.91
2022-10-29T13:14:39.187Z,17.46
2022-10-29T13:17:36.481Z,17.54
2022-10-29T13:20:27.808Z,16.77
2022-10-29T13:23:22.449Z,17.93
2022-10-29T13:26:09.187Z,17.43
2022-10-29T13:28:54.758Z,17.75
2022-10-29T13:31:46.462Z,17.94
2022-10-29T13:35:10.701Z,17.93
2022-10-29T13:38:12.166Z,17.66
2022-10-29T13:41:03.832Z,17.89
2022-10-29T13:44:14.265Z,17.47
2022-10-29T13:47:03.522Z,16.88
2022-10-29T13:49:49.724Z,16.77
2022-10-29T13:52:37.381Z,16.78
2022-10-29T13:55:23.002Z,16.70
2022-10-29T13:58:32.125Z,16.98
2022-10-29T14:01:20.855Z,17.74
2022-10-29T14:04:25.779Z,16.92
2022-10-29T14:07:18.542Z,17.75
2022-10-29T14:10:14.976Z,16.83
2022-10-29T14:13:26.407Z,17.64
2022-10-29T14:16:13.510Z,16.76
2022-10-29T14:19:13.749Z,17.08
2022-10-29T14:21:59.473Z,17.39
2022-10-29T14:24:44.889Z,16.67
2022-10-29T14:27:30.605Z,17.61
2022-10-29T14:30:19.971Z,17.28
2022-10-29T14:33:26.120Z,17.52
2022-10-29T14:36:15.621Z,17.45
2022-10-29T14:39:01.139Z,17.46
2022-10-29T14:41:49.980Z,17.30
2022-10-29T14:44:35.464Z,17.40
2022-10-29T14:47:30.408Z,17.38
2022-10-29T14:50:25.428Z,16.34
2022-10-29T14:53:23.043Z,16.18
2022-10-29T14:56:18.678Z,16.19
2022-10-29T14:59:14.140Z,17.24
2022-10-29T15:02:17.119Z,17.20
2022-10-29T15:05:30.419Z,16.16
2022-10-29T15:08:24.071Z,17.11
2022-10-29T15:11:34.077Z,17.08
2022-10-29T15:14:31.449Z,17.04
2022-10-29T15:17:22.561Z,17.02
2022-10-29T15:20:42.006Z,16.98
2022-10-29T15:23:35.468Z,16.91
2022-10-29T15:26:23.185Z,16.33
2022-10-29T15:29:11.746Z,15.90
2022-10-29T15:31:57.901Z,15.84
2022-10-29T15:34:56.821Z,16.73
2022-10-29T15:37:47.455Z,16.40
2022-10-29T15:41:16.345Z,16.68
2022-10-29T15:44:28.258Z,16.47
2022-10-29T15:47:26.500Z,15.52
2022-10-29T15:50:36.562Z,16.20
2022-10-29T15:53:21.897Z,16.46
2022-10-29T15:56:12.329Z,16.39
2022-10-29T15:59:00.841Z,16.04
2022-10-29T16:01:46.954Z,16.36
2022-10-29T16:04:34.032Z,16.21
2022-10-29T16:07:21.540Z,15.76
2022-10-29T16:10:13.020Z,16.31
2022-10-29T16:12:59.607Z,15.43
2022-10-29T16:15:44.898Z,16.25
2022-10-29T16:18:30.324Z,15.78
2022-10-29T16:21:21.738Z,15.86
2022-10-29T16:24:13.232Z,15.92
2022-10-29T16:26:58.687Z,14.26
2022-10-29T16:29:44.367Z,15.08
2022-10-29T16:32:30.205Z,16.13
2022-10-29T16:35:24.624Z,14.95
2022-10-29T16:38:11.194Z,16.10
2022-10-29T16:40:56.446Z,15.69
2022-10-29T16:43:43.364Z,15.19
2022-10-29T16:46:28.552Z,15.98
2022-10-29T16:49:13.917Z,15.87
2022-10-29T16:51:59.222Z,15.78
2022-10-29T16:54:44.845Z,14.84
2022-10-29T16:57:30.531Z,15.65
2022-10-29T17:00:16.042Z,15.37
2022-10-29T17:03:10.963Z,14.71
2022-10-29T17:06:04.258Z,15.10
2022-10-29T17:08:50.130Z,15.32
2022-10-29T17:11:35.620Z,14.68
2022-10-29T17:14:21.096Z,14.57
2022-10-29T17:17:06.985Z,14.20
2022-10-29T17:19:53.770Z,14.61
2022-10-29T17:22:39.453Z,15.47
2022-10-29T17:25:25.225Z,15.45
2022-10-29T17:28:10.781Z,15.09
2022-10-29T17:30:56.274Z,15.52
2022-10-29T17:33:41.762Z,15.56
2022-10-29T17:36:27.027Z,15.56
2022-10-29T17:39:12.615Z,15.62
2022-10-29T17:41:58.633Z,14.66
2022-10-29T17:44:44.053Z,15.66
2022-10-29T17:47:30.028Z,15.22
2022-10-29T17:50:15.734Z,15.14
2022-10-29T17:53:01.173Z,14.97
2022-10-29T17:55:46.520Z,15.30
2022-10-29T17:58:31.854Z,15.70
2022-10-29T18:01:17.938Z,15.36
2022-10-29T18:04:05.060Z,15.50
2022-10-29T18:06:50.796Z,15.21
2022-10-29T18:09:36.511Z,14.64
2022-10-29T18:12:21.766Z,14.53
2022-10-29T18:15:08.220Z,14.47
2022-10-29T18:17:53.822Z,15.34
2022-10-29T18:20:39.207Z,15.33
2022-10-29T18:23:24.729Z,15.13
2022-10-29T18:26:29.100Z,14.92
2022-10-29T18:29:15.105Z,14.48
2022-10-29T18:32:00.740Z,15.27
2022-10-29T18:34:46.614Z,14.21
2022-10-29T18:37:32.253Z,15.21
2022-10-29T18:40:18.184Z,15.11
2022-10-29T18:43:04.160Z,14.71
2022-10-29T18:45:56.154Z,15.12
2022-10-29T18:48:47.498Z,14.59
2022-10-29T18:51:33.437Z,15.00
2022-10-29T18:54:19.898Z,14.81
2022-10-29T18:57:05.123Z,15.00
2022-10-29T18:59:50.540Z,14.76
2022-10-29T19:02:36.091Z,14.96
2022-10-29T19:05:21.632Z,14.84
2022-10-29T19:08:08.889Z,14.71
2022-10-29T19:10:55.832Z,14.93
2022-10-29T19:13:42.178Z,14.32
2022-10-29T19:16:29.033Z,14.90
2022-10-29T19:19:17.288Z,14.50
2022-10-29T19:22:05.344Z,13.56
2022-10-29T19:24:50.922Z,14.03
2022-10-29T19:27:37.560Z,14.86
2022-10-29T19:30:23.659Z,14.61
2022-10-29T19:33:09.337Z,14.73
2022-10-29T19:35:54.962Z,14.47
2022-10-29T19:38:40.512Z,14.44
2022-10-29T19:41:26.829Z,14.80
2022-10-29T19:44:12.577Z,13.70
2022-10-29T19:46:58.081Z,14.76
2022-10-29T19:49:43.551Z,14.70
2022-10-29T19:52:29.259Z,14.67
2022-10-29T19:55:14.697Z,13.58
2022-10-29T19:58:00.126Z,13.58
2022-10-29T20:00:45.973Z,14.62
2022-10-29T20:03:32.244Z,14.09
2022-10-29T20:06:18.120Z,14.01
2022-10-29T20:09:04.136Z,14.09
2022-10-29T20:11:49.829Z,14.25
2022-10-29T20:14:35.733Z,13.93
2022-10-29T20:17:21.445Z,14.55
2022-10-29T20:20:08.259Z,13.35
2022-10-29T20:22:55.133Z,13.92
2022-10-29T20:25:40.550Z,14.04
2022-10-29T20:28:25.931Z,14.41
2022-10-29T20:31:14.210Z,14.54
2022-10-29T20:34:00.878Z,13.35
2022-10-29T20:36:47.359Z,13.63
2022-10-29T20:39:33.589Z,14.07
2022-10-29T20:42:19.492Z,13.98
2022-10-29T20:45:05.658Z,14.47
2022-10-29T20:47:50.997Z,14.40
2022-10-29T20:50:36.459Z,13.80
2022-10-29T20:53:21.701Z,14.20
2022-10-29T20:56:10.337Z,14.39
2022-10-29T20:58:58.859Z,14.47
2022-10-29T21:01:44.584Z,13.86
2022-10-29T21:04:30.329Z,13.65
2022-10-29T21:07:16.055Z,13.36
2022-10-29T21:10:01.696Z,13.53
2022-10-29T21:12:47.167Z,14.20
2022-10-29T21:15:36.470Z,14.40
2022-10-29T21:18:22.609Z,13.70
2022-10-29T21:21:08.914Z,14.35
2022-10-29T21:23:54.983Z,13.19
2022-10-29T21:26:40.458Z,14.13
2022-10-29T21:29:26.087Z,13.24
2022-10-29T21:32:14.384Z,14.17
2022-10-29T21:35:02.652Z,13.70
2022-10-29T21:37:48.134Z,14.10
2022-10-29T21:40:33.756Z,13.32
2022-10-29T21:43:21.910Z,13.66
2022-10-29T21:46:08.158Z,13.95
2022-10-29T21:48:55.981Z,14.18
2022-10-29T21:51:42.503Z,13.04
2022-10-29T21:54:28.499Z,13.51
2022-10-29T21:57:14.240Z,14.02
2022-10-29T21:59:59.515Z,13.83
2022-10-29T22:02:45.094Z,12.97
2022-10-29T22:05:30.733Z,13.06
2022-10-29T22:08:16.466Z,14.06
2022-10-29T22:11:02.254Z,12.95
2022-10-29T22:13:47.750Z,13.09
2022-10-29T22:16:33.140Z,13.99
2022-10-29T22:19:18.418Z,14.01
2022-10-29T22:22:03.732Z,13.97
2022-10-29T22:24:49.471Z,13.86
2022-10-29T22:27:34.769Z,13.88
2022-10-29T22:30:20.211Z,13.88
2022-10-29T22:33:05.353Z,13.88
2022-10-29T22:35:51.051Z,13.41
2022-10-29T22:38:36.675Z,13.63
2022-10-29T22:41:23.604Z,13.00
2022-10-29T22:44:09.437Z,13.90
2022-10-29T22:46:55.033Z,12.61
2022-10-29T22:49:40.327Z,13.80
2022-10-29T22:52:26.080Z,13.65
2022-10-29T22:55:11.443Z,13.24
2022-10-29T22:57:56.908Z,12.85
2022-10-29T23:00:42.238Z,13.87
2022-10-29T23:03:27.535Z,13.84
2022-10-29T23:06:15.772Z,13.79
2022-10-29T23:09:04.134Z,13.85
2022-10-29T23:11:49.580Z,12.67
2022-10-29T23:14:35.204Z,13.83
2022-10-29T23:17:20.640Z,13.74
2022-10-29T23:20:06.789Z,13.55
2022-10-29T23:22:52.364Z,13.63
2022-10-29T23:25:40.656Z,13.72
2022-10-29T23:28:26.202Z,12.64
2022-10-29T23:31:15.289Z,12.61
2022-10-29T23:34:00.821Z,12.68
2022-10-29T23:36:46.362Z,12.54
2022-10-29T23:39:31.692Z,13.68
2022-10-29T23:42:17.214Z,13.67
2022-10-29T23:45:07.748Z,13.61
2022-10-29T23:47:53.310Z,13.61
2022-10-29T23:50:39.001Z,13.43
2022-10-29T23:53:25.314Z,13.11
2022-10-29T23:56:10.616Z,12.42
2022-10-29T23:58:56.172Z,13.56
